createdAt,value
2023-04-27T00:00:23.122Z,100526.31
2023-04-27T00:03:26.482Z,100516.56
2023-04-27T00:06:29.524Z,100511.34
2023-04-27T00:09:33.970Z,100511.44
2023-04-27T00:12:36.633Z,100510.56
2023-04-27T00:15:39.494Z,100513.16
2023-04-27T00:18:42.253Z,100513.09
2023-04-27T00:21:44.944Z,100520.13
2023-04-27T00:24:48.969Z,100513.78
2023-04-27T00:27:51.755Z,100515.44
2023-04-27T00:30:55.154Z,100518.09
2023-04-27T00:33:57.854Z,100508.16
2023-04-27T00:37:00.544Z,100508.94
2023-04-27T00:40:07.922Z,100514.38
2023-04-27T00:43:10.662Z,100514.38
2023-04-27T00:46:14.627Z,100507.06
2023-04-27T00:49:17.648Z,100509.56
2023-04-27T00:52:20.364Z,100514.03
2023-04-27T00:55:24.687Z,100513.13
2023-04-27T00:58:27.352Z,100509.50
2023-04-27T01:01:31.386Z,100506.97
2023-04-27T01:04:34.300Z,100507.13
2023-04-27T01:07:38.792Z,100508.38
2023-04-27T01:10:42.818Z,100498.03
2023-04-27T01:13:46.226Z,100501.00
2023-04-27T01:16:49.419Z,100503.03
2023-04-27T01:19:55.224Z,100510.41
2023-04-27T01:22:58.732Z,100512.41
2023-04-27T01:26:02.747Z,100523.25
2023-04-27T01:29:05.439Z,100526.94
2023-04-27T01:32:14.604Z,100518.16
2023-04-27T01:35:17.542Z,100529.94
2023-04-27T01:38:20.265Z,100528.25
2023-04-27T01:41:24.877Z,100528.28
2023-04-27T01:44:27.583Z,100523.88
2023-04-27T01:47:30.279Z,100521.16
2023-04-27T01:50:33.120Z,100524.69
2023-04-27T01:53:36.243Z,100528.41
2023-04-27T01:56:40.309Z,100526.56
2023-04-27T01:59:43.004Z,100528.47
2023-04-27T02:02:46.098Z,100530.34
2023-04-27T02:05:48.966Z,100535.03
2023-04-27T02:08:51.626Z,100532.44
2023-04-27T02:11:55.748Z,100538.88
2023-04-27T02:14:58.485Z,100543.41
2023-04-27T02:18:01.298Z,100541.75
2023-04-27T02:21:09.963Z,100539.13
2023-04-27T02:24:12.622Z,100542.81
2023-04-27T02:27:16.732Z,100541.03
2023-04-27T02:30:20.004Z,100543.84
2023-04-27T02:33:23.748Z,100557.31
2023-04-27T02:36:27.904Z,100550.16
2023-04-27T02:39:30.673Z,100544.78
2023-04-27T02:42:34.823Z,100558.31
2023-04-27T02:45:39.051Z,100549.50
2023-04-27T02:48:41.766Z,100556.91
2023-04-27T02:51:44.618Z,100558.94
2023-04-27T02:54:47.339Z,100560.78
2023-04-27T02:57:52.414Z,100561.78
2023-04-27T03:00:55.900Z,100572.56
2023-04-27T03:03:59.632Z,100570.91
2023-04-27T03:07:02.449Z,100577.25
2023-04-27T03:10:06.428Z,100578.22
2023-04-27T03:13:10.564Z,100574.72
2023-04-27T03:16:13.484Z,100573.00
2023-04-27T03:19:16.478Z,100563.22
2023-04-27T03:22:19.314Z,100565.03
2023-04-27T03:25:22.552Z,100562.41
2023-04-27T03:28:26.765Z,100557.00
2023-04-27T03:31:29.663Z,100555.22
2023-04-27T03:34:32.535Z,100556.97
2023-04-27T03:37:36.443Z,100558.72
2023-04-27T03:40:39.124Z,100556.84
2023-04-27T03:43:43.176Z,100559.44
2023-04-27T03:46:45.982Z,100561.16
2023-04-27T03:49:48.693Z,100561.97
2023-04-27T03:52:51.366Z,100560.16
2023-04-27T03:55:54.045Z,100560.16
2023-04-27T03:58:58.135Z,100555.81
2023-04-27T04:02:01.540Z,100558.63
2023-04-27T04:05:04.615Z,100546.44
2023-04-27T04:08:07.487Z,100557.13
2023-04-27T04:11:12.807Z,100556.38
2023-04-27T04:14:16.837Z,100566.28
2023-04-27T04:17:19.463Z,100565.47
2023-04-27T04:20:22.397Z,100576.19
2023-04-27T04:23:25.247Z,100573.56
2023-04-27T04:26:27.945Z,100577.94
2023-04-27T04:29:32.780Z,100583.16
2023-04-27T04:32:37.851Z,100581.13
2023-04-27T04:35:41.503Z,100576.41
2023-04-27T04:38:44.210Z,100576.13
2023-04-27T04:41:47.041Z,100580.44
2023-04-27T04:44:51.362Z,100571.34
2023-04-27T04:47:55.515Z,100564.91
2023-04-27T04:50:58.564Z,100562.06
2023-04-27T04:54:02.142Z,100566.28
2023-04-27T04:57:07.829Z,100560.59
2023-04-27T05:00:13.717Z,100565.00
2023-04-27T05:03:16.779Z,100564.16
2023-04-27T05:06:20.089Z,100572.22
2023-04-27T05:09:23.155Z,100574.13
2023-04-27T05:12:25.891Z,100576.97
2023-04-27T05:15:29.950Z,100584.75
2023-04-27T05:18:32.576Z,100584.03
2023-04-27T05:21:35.461Z,100593.09
2023-04-27T05:24:38.549Z,100587.47
2023-04-27T05:27:41.295Z,100585.34
2023-04-27T05:30:45.402Z,100583.53
2023-04-27T05:33:48.457Z,100580.94
2023-04-27T05:36:51.339Z,100584.53
2023-04-27T05:39:54.022Z,100590.66
2023-04-27T05:42:56.776Z,100584.25
2023-04-27T05:46:00.885Z,100584.19
2023-04-27T05:49:03.665Z,100585.84
2023-04-27T05:52:06.351Z,100582.16
2023-04-27T05:55:09.351Z,100588.84
2023-04-27T05:58:12.059Z,100587.78
2023-04-27T06:01:16.324Z,100592.97
2023-04-27T06:04:19.044Z,100592.81
2023-04-27T06:07:22.014Z,100591.09
2023-04-27T06:10:24.911Z,100583.63
2023-04-27T06:13:27.572Z,100589.75
2023-04-27T06:16:31.710Z,100586.19
2023-04-27T06:19:34.439Z,100589.50
2023-04-27T06:22:38.052Z,100592.06
2023-04-27T06:25:41.111Z,100591.06
2023-04-27T06:28:46.125Z,100595.25
2023-04-27T06:31:50.356Z,100590.63
2023-04-27T06:34:53.162Z,100582.13
2023-04-27T06:37:58.836Z,100587.97
2023-04-27T06:41:05.047Z,100579.38
2023-04-27T06:44:07.703Z,100569.53
2023-04-27T06:47:11.765Z,100568.53
2023-04-27T06:50:17.462Z,100576.47
2023-04-27T06:53:20.184Z,100569.75
2023-04-27T06:56:22.879Z,100568.66
2023-04-27T06:59:25.606Z,100565.63
2023-04-27T07:02:29.782Z,100563.13
2023-04-27T07:05:34.707Z,100555.88
2023-04-27T07:08:37.776Z,100551.91
2023-04-27T07:11:40.504Z,100553.81
2023-04-27T07:14:43.199Z,100554.31
2023-04-27T07:17:47.364Z,100559.00
2023-04-27T07:20:50.110Z,100561.72
2023-04-27T07:23:54.142Z,100565.22
2023-04-27T07:26:59.424Z,100572.31
2023-04-27T07:30:02.169Z,100571.94
2023-04-27T07:33:07.236Z,100573.09
2023-04-27T07:36:10.083Z,100571.16
2023-04-27T07:39:13.133Z,100553.59
2023-04-27T07:42:16.372Z,100554.66
2023-04-27T07:45:19.079Z,100553.06
2023-04-27T07:48:24.631Z,100550.81
2023-04-27T07:51:28.720Z,100551.59
2023-04-27T07:54:31.740Z,100548.09
2023-04-27T07:57:34.525Z,100548.19
2023-04-27T08:00:37.439Z,100540.34
2023-04-27T08:03:43.689Z,100545.88
2023-04-27T08:06:47.135Z,100540.59
2023-04-27T08:09:52.378Z,100527.25
2023-04-27T08:12:55.406Z,100539.13
2023-04-27T08:15:59.382Z,100537.88
2023-04-27T08:19:03.504Z,100534.94
2023-04-27T08:22:06.200Z,100539.69
2023-04-27T08:25:09.939Z,100523.38
2023-04-27T08:28:12.688Z,100534.63
2023-04-27T08:31:18.443Z,100530.28
2023-04-27T08:34:22.454Z,100530.66
2023-04-27T08:37:25.276Z,100516.88
2023-04-27T08:40:28.198Z,100526.63
2023-04-27T08:43:35.390Z,100515.75
2023-04-27T08:46:38.744Z,100513.94
2023-04-27T08:49:42.933Z,100507.00
2023-04-27T08:52:45.799Z,100503.53
2023-04-27T08:55:48.565Z,100499.22
2023-04-27T08:58:53.489Z,100499.75
2023-04-27T09:01:56.438Z,100491.44
2023-04-27T09:05:04.066Z,100488.88
2023-04-27T09:08:10.878Z,100487.72
2023-04-27T09:11:14.151Z,100487.63
2023-04-27T09:14:19.658Z,100497.16
2023-04-27T09:17:25.965Z,100492.81
2023-04-27T09:20:30.197Z,100476.16
2023-04-27T09:23:34.309Z,100482.13
2023-04-27T09:26:38.635Z,100478.97
2023-04-27T09:29:41.457Z,100473.44
2023-04-27T09:32:54.321Z,100476.78
2023-04-27T09:36:01.057Z,100466.53
2023-04-27T09:39:05.367Z,100458.91
2023-04-27T09:42:08.496Z,100454.94
2023-04-27T09:45:12.887Z,100455.19
2023-04-27T09:48:15.578Z,100441.56
2023-04-27T09:51:19.600Z,100441.13
2023-04-27T09:54:25.199Z,100440.31
2023-04-27T09:57:37.615Z,100439.28
2023-04-27T10:00:56.520Z,100435.38
2023-04-27T10:04:14.431Z,100423.75
2023-04-27T10:07:19.064Z,100431.69
2023-04-27T10:10:21.831Z,100428.38
2023-04-27T10:13:26.219Z,100424.44
2023-04-27T10:16:29.031Z,100431.38
2023-04-27T10:19:31.863Z,100426.78
2023-04-27T10:22:44.271Z,100418.84
2023-04-27T10:25:47.794Z,100407.72
2023-04-27T10:28:58.554Z,100394.97
2023-04-27T10:32:07.749Z,100397.31
2023-04-27T10:35:10.736Z,100413.88
2023-04-27T10:38:18.999Z,100383.31
2023-04-27T10:41:23.520Z,100409.28
2023-04-27T10:44:28.704Z,100401.16
2023-04-27T10:47:39.263Z,100405.03
2023-04-27T10:50:42.592Z,100405.03
2023-04-27T10:53:47.951Z,100395.94
2023-04-27T10:56:50.774Z,100393.13
2023-04-27T10:59:55.630Z,100389.56
2023-04-27T11:03:11.376Z,100377.47
2023-04-27T11:06:14.435Z,100385.47
2023-04-27T11:09:28.195Z,100380.88
2023-04-27T11:12:33.333Z,100377.56
2023-04-27T11:15:44.524Z,100372.53
2023-04-27T11:18:47.296Z,100370.25
2023-04-27T11:21:50.872Z,100368.25
2023-04-27T11:24:55.070Z,100368.25
2023-04-27T11:27:57.771Z,100359.94
2023-04-27T11:31:01.058Z,100350.94
2023-04-27T11:34:04.190Z,100358.16
2023-04-27T11:40:16.015Z,100352.88
2023-04-27T11:43:19.043Z,100349.38
2023-04-27T11:46:22.350Z,100345.41
2023-04-27T11:49:26.913Z,100342.75
2023-04-27T11:52:30.443Z,100328.88
2023-04-27T11:55:41.812Z,100338.19
2023-04-27T11:58:46.431Z,100335.78
2023-04-27T12:01:49.543Z,100330.44
2023-04-27T12:04:52.822Z,100336.91
2023-04-27T12:07:55.871Z,100338.50
2023-04-27T12:11:00.344Z,100333.78
2023-04-27T12:14:04.029Z,100332.50
2023-04-27T12:17:07.613Z,100321.25
2023-04-27T12:20:11.665Z,100332.56
2023-04-27T12:23:14.448Z,100325.59
2023-04-27T12:26:18.620Z,100320.50
2023-04-27T12:29:22.243Z,100319.50
2023-04-27T12:32:24.923Z,100321.16
2023-04-27T12:35:31.709Z,100305.41
2023-04-27T12:38:34.496Z,100321.59
2023-04-27T12:41:38.716Z,100314.56
2023-04-27T12:44:42.373Z,100308.66
2023-04-27T12:48:00.931Z,100311.06
2023-04-27T12:51:04.439Z,100304.75
2023-04-27T12:54:07.871Z,100310.75
2023-04-27T12:57:12.211Z,100300.47
2023-04-27T13:00:15.876Z,100298.16
2023-04-27T13:03:18.885Z,100298.53
2023-04-27T13:06:22.914Z,100287.16
2023-04-27T13:09:28.989Z,100295.28
2023-04-27T13:12:33.513Z,100296.91
2023-04-27T13:15:36.572Z,100279.78
2023-04-27T13:18:40.168Z,100283.06
2023-04-27T13:21:42.942Z,100287.06
2023-04-27T13:24:45.612Z,100276.16
2023-04-27T13:27:50.292Z,100284.28
2023-04-27T13:30:55.547Z,100270.81
2023-04-27T13:33:58.651Z,100272.88
2023-04-27T13:37:01.382Z,100270.13
2023-04-27T13:40:05.309Z,100265.97
2023-04-27T13:43:09.328Z,100260.88
2023-04-27T13:46:13.693Z,100260.50
2023-04-27T13:49:16.495Z,100253.06
2023-04-27T13:52:19.310Z,100255.16
2023-04-27T13:55:22.364Z,100253.25
2023-04-27T13:58:28.057Z,100256.09
2023-04-27T14:01:30.809Z,100250.16
2023-04-27T14:04:33.837Z,100258.13
2023-04-27T14:07:36.879Z,100255.16
2023-04-27T14:10:39.976Z,100243.06
2023-04-27T14:13:43.993Z,100250.22
2023-04-27T14:16:46.938Z,100258.38
2023-04-27T14:19:49.947Z,100254.50
2023-04-27T14:22:52.906Z,100255.03
2023-04-27T14:25:55.799Z,100259.13
2023-04-27T14:29:00.057Z,100259.00
2023-04-27T14:32:02.772Z,100264.38
2023-04-27T14:35:07.060Z,100241.59
2023-04-27T14:38:09.881Z,100244.31
2023-04-27T14:41:12.573Z,100252.03
2023-04-27T14:44:16.634Z,100250.66
2023-04-27T14:47:19.802Z,100242.22
2023-04-27T14:50:22.571Z,100244.44
2023-04-27T14:53:25.481Z,100250.34
2023-04-27T14:56:28.218Z,100242.56
2023-04-27T14:59:34.118Z,100254.19
2023-04-27T15:02:37.311Z,100241.69
2023-04-27T15:05:40.294Z,100255.44
2023-04-27T15:08:42.992Z,100251.97
2023-04-27T15:11:45.803Z,100253.56
2023-04-27T15:14:51.674Z,100249.47
2023-04-27T15:17:54.431Z,100253.75
2023-04-27T15:20:58.077Z,100245.75
2023-04-27T15:24:00.796Z,100252.25
2023-04-27T15:27:03.933Z,100247.16
2023-04-27T15:30:09.392Z,100239.28
2023-04-27T15:33:12.338Z,100241.09
2023-04-27T15:36:15.977Z,100241.47
2023-04-27T15:39:18.805Z,100243.84
2023-04-27T15:42:21.743Z,100241.38
2023-04-27T15:45:25.910Z,100240.38
2023-04-27T15:48:28.748Z,100236.13
2023-04-27T15:51:32.563Z,100233.66
2023-04-27T15:54:36.009Z,100236.38
2023-04-27T15:57:39.301Z,100233.41
2023-04-27T16:00:44.796Z,100224.66
2023-04-27T16:03:52.203Z,100214.44
2023-04-27T16:06:55.708Z,100211.69
2023-04-27T16:09:58.584Z,100204.94
2023-04-27T16:13:01.320Z,100200.06
2023-04-27T16:16:07.336Z,100191.31
2023-04-27T16:19:10.673Z,100180.81
2023-04-27T16:22:13.440Z,100195.19
2023-04-27T16:25:16.816Z,100198.19
2023-04-27T16:28:19.938Z,100192.97
2023-04-27T16:31:24.509Z,100183.59
2023-04-27T16:34:27.782Z,100180.44
2023-04-27T16:37:30.620Z,100173.72
2023-04-27T16:40:33.438Z,100188.19
2023-04-27T16:43:36.350Z,100196.69
2023-04-27T16:46:40.715Z,100198.44
2023-04-27T16:49:44.310Z,100201.91
2023-04-27T16:52:47.085Z,100192.19
2023-04-27T16:55:49.816Z,100188.44
2023-04-27T16:58:52.452Z,100188.06
2023-04-27T17:01:56.563Z,100183.44
2023-04-27T17:04:59.689Z,100184.28
2023-04-27T17:08:05.076Z,100187.75
2023-04-27T17:11:09.099Z,100188.72
2023-04-27T17:14:11.869Z,100193.06
2023-04-27T17:17:17.054Z,100192.97
2023-04-27T17:20:19.958Z,100199.91
2023-04-27T17:23:22.635Z,100203.03
2023-04-27T17:26:25.330Z,100200.81
2023-04-27T17:29:28.042Z,100207.53
2023-04-27T17:32:32.487Z,100206.03
2023-04-27T17:35:35.279Z,100205.19
2023-04-27T17:38:38.300Z,100214.16
2023-04-27T17:41:41.178Z,100209.00
2023-04-27T17:44:43.942Z,100214.69
2023-04-27T17:47:48.082Z,100220.44
2023-04-27T17:50:50.952Z,100215.81
2023-04-27T17:53:54.145Z,100220.94
2023-04-27T17:56:56.934Z,100214.84
2023-04-27T17:59:59.707Z,100223.88
2023-04-27T18:03:04.077Z,100224.13
2023-04-27T18:06:08.064Z,100218.91
2023-04-27T18:09:11.219Z,100224.19
2023-04-27T18:12:13.922Z,100224.38
2023-04-27T18:15:16.605Z,100240.75
2023-04-27T18:18:23.266Z,100232.97
2023-04-27T18:21:28.374Z,100235.88
2023-04-27T18:24:31.223Z,100244.13
2023-04-27T18:27:33.924Z,100249.28
2023-04-27T18:30:36.721Z,100256.47
2023-04-27T18:33:40.750Z,100262.25
2023-04-27T18:36:43.538Z,100238.44
2023-04-27T18:39:46.192Z,100275.03
2023-04-27T18:42:49.098Z,100266.25
2023-04-27T18:45:52.098Z,100257.22
2023-04-27T18:48:56.290Z,100265.00
2023-04-27T18:51:59.066Z,100263.63
2023-04-27T18:55:02.691Z,100270.47
2023-04-27T18:58:05.433Z,100262.59
2023-04-27T19:01:08.328Z,100274.38
2023-04-27T19:04:13.037Z,100278.50
2023-04-27T19:07:16.324Z,100282.25
2023-04-27T19:10:19.062Z,100277.53
2023-04-27T19:13:21.826Z,100275.00
2023-04-27T19:16:24.637Z,100276.31
2023-04-27T19:19:28.712Z,100277.69
2023-04-27T19:22:34.296Z,100288.13
2023-04-27T19:25:37.281Z,100283.03
2023-04-27T19:28:40.176Z,100286.88
2023-04-27T19:31:42.943Z,100284.16
2023-04-27T19:34:47.354Z,100279.59
2023-04-27T19:37:50.823Z,100282.94
2023-04-27T19:40:53.706Z,100280.84
2023-04-27T19:43:56.577Z,100293.47
2023-04-27T19:46:59.406Z,100293.53
2023-04-27T19:50:04.931Z,100285.38
2023-04-27T19:53:07.622Z,100294.66
2023-04-27T19:56:10.359Z,100295.00
2023-04-27T19:59:13.053Z,100292.38
2023-04-27T20:02:16.332Z,100292.69
2023-04-27T20:05:20.778Z,100293.19
2023-04-27T20:08:24.763Z,100293.38
2023-04-27T20:11:27.633Z,100286.19
2023-04-27T20:14:33.670Z,100282.50
2023-04-27T20:17:36.446Z,100277.94
2023-04-27T20:20:42.026Z,100287.16
2023-04-27T20:23:44.884Z,100281.88
2023-04-27T20:26:47.601Z,100281.56
2023-04-27T20:29:50.272Z,100283.53
2023-04-27T20:32:53.495Z,100277.78
2023-04-27T20:36:03.521Z,100285.94
2023-04-27T20:39:10.390Z,100283.88
2023-04-27T20:42:13.541Z,100262.31
2023-04-27T20:45:16.354Z,100286.81
2023-04-27T20:48:19.336Z,100285.94
2023-04-27T20:51:23.715Z,100280.75
2023-04-27T20:54:26.450Z,100278.03
2023-04-27T20:57:29.128Z,100285.22
2023-04-27T21:00:32.001Z,100278.78
2023-04-27T21:03:35.589Z,100287.00
2023-04-27T21:06:41.190Z,100277.91
2023-04-27T21:09:43.893Z,100276.28
2023-04-27T21:12:46.625Z,100270.63
2023-04-27T21:15:49.268Z,100271.81
2023-04-27T21:18:51.903Z,100263.91
2023-04-27T21:21:56.179Z,100263.91
2023-04-27T21:24:58.876Z,100266.72
2023-04-27T21:28:02.248Z,100262.56
2023-04-27T21:31:05.038Z,100259.09
2023-04-27T21:34:08.113Z,100256.72
2023-04-27T21:37:12.205Z,100254.06
2023-04-27T21:40:14.954Z,100254.41
2023-04-27T21:43:17.723Z,100244.97
2023-04-27T21:46:20.880Z,100254.44
2023-04-27T21:49:23.630Z,100258.50
2023-04-27T21:52:27.719Z,100256.75
2023-04-27T21:55:30.426Z,100253.88
2023-04-27T21:58:33.157Z,100247.50
2023-04-27T22:01:35.942Z,100244.78
2023-04-27T22:04:39.630Z,100243.69
2023-04-27T22:07:47.657Z,100238.09
2023-04-27T22:10:50.320Z,100246.22
2023-04-27T22:13:53.207Z,100240.81
2023-04-27T22:16:58.111Z,100238.97
2023-04-27T22:20:01.229Z,100230.75
2023-04-27T22:23:05.322Z,100231.41
2023-04-27T22:26:08.979Z,100237.38
2023-04-27T22:29:11.942Z,100232.97
2023-04-27T22:32:15.390Z,100237.47
2023-04-27T22:35:26.224Z,100237.59
2023-04-27T22:38:31.102Z,100242.06
2023-04-27T22:41:33.895Z,100240.09
2023-04-27T22:44:36.616Z,100236.31
2023-04-27T22:47:41.203Z,100240.66
2023-04-27T22:50:44.022Z,100226.59
2023-04-27T22:53:48.077Z,100219.41
2023-04-27T22:56:50.913Z,100206.75
2023-04-27T22:59:54.690Z,100202.03
2023-04-27T23:02:57.744Z,100209.38
2023-04-27T23:06:01.350Z,100210.47
2023-04-27T23:09:05.549Z,100216.06
2023-04-27T23:12:08.978Z,100230.00
2023-04-27T23:15:12.562Z,100222.72
2023-04-27T23:18:15.499Z,100228.09
2023-04-27T23:21:18.320Z,100205.34
2023-04-27T23:24:22.310Z,100221.66
2023-04-27T23:27:25.183Z,100215.09
2023-04-27T23:30:27.898Z,100212.56
2023-04-27T23:33:30.594Z,100204.72
2023-04-27T23:36:33.297Z,100198.81
2023-04-27T23:39:37.333Z,100188.91
2023-04-27T23:42:40.078Z,100187.22
2023-04-27T23:45:42.743Z,100177.34
2023-04-27T23:48:46.094Z,100178.38
2023-04-27T23:51:50.022Z,100177.63
2023-04-27T23:54:54.018Z,100175.25
2023-04-27T23:57:56.814Z,100176.38
